Airport View

Enter AWOS ICAO identifier for current METAR.

ex. KFNL

PAKW 080501Z AUTO 19006KT 4SM -RA BR FEW007 BKN033 OVC044 13/12 A2994 RMK AO2 P0001 T01280117 TSNO

8 Aug 2020 05:27

Frequency: 135.45

Phone: 907-755-2641

Other Area AWOS: PAHY - PAKT - PAMM - PAWG

TAF AMD PAKW 080216Z 0802/0824 19007KT 6SM -SHRA BR FEW007 BKN050 OVC070 TEMPO 0802/0805 2SM +SHRA BR BKN015 BKN022 OVC040 FM080500 18004KT P6SM -SHRA OVC015 FM081500 VRB02KT P6SM BKN007 OVC015 AMD LTD TO CLD VIS AND WIND